createdAt,value
2023-04-18T00:01:21.700Z,11.97
2023-04-18T00:04:25.399Z,11.93
2023-04-18T00:07:28.047Z,11.92
2023-04-18T00:10:30.967Z,11.91
2023-04-18T00:13:33.771Z,11.90
2023-04-18T00:16:38.195Z,11.90
2023-04-18T00:19:43.373Z,11.90
2023-04-18T00:22:55.089Z,11.90
2023-04-18T00:25:57.750Z,11.89
2023-04-18T00:29:00.312Z,11.89
2023-04-18T00:32:02.845Z,11.89
2023-04-18T00:35:06.900Z,11.87
2023-04-18T00:38:09.451Z,11.88
2023-04-18T00:41:12.295Z,11.87
2023-04-18T00:44:15.097Z,11.86
2023-04-18T00:47:17.752Z,11.82
2023-04-18T00:50:21.174Z,11.78
2023-04-18T00:53:24.070Z,11.80
2023-04-18T00:56:26.738Z,11.77
2023-04-18T00:59:29.414Z,11.79
2023-04-18T01:02:34.018Z,11.78
2023-04-18T01:05:36.747Z,11.74
2023-04-18T01:08:42.195Z,11.72
2023-04-18T01:11:44.697Z,11.72
2023-04-18T01:14:47.696Z,11.70
2023-04-18T01:17:52.469Z,11.68
2023-04-18T01:20:57.137Z,11.70
2023-04-18T01:24:17.185Z,11.70
2023-04-18T01:27:20.033Z,11.71
2023-04-18T01:30:22.502Z,11.74
2023-04-18T01:33:25.019Z,11.75
2023-04-18T01:36:27.688Z,11.76
2023-04-18T01:39:30.169Z,11.74
2023-04-18T01:42:33.056Z,11.71
2023-04-18T01:45:35.482Z,11.68
2023-04-18T01:48:38.265Z,11.67
2023-04-18T01:51:41.019Z,11.61
2023-04-18T01:54:43.502Z,11.58
2023-04-18T01:57:46.248Z,11.58
2023-04-18T02:00:51.561Z,11.58
2023-04-18T02:03:54.377Z,11.58
2023-04-18T02:06:57.227Z,11.62
2023-04-18T02:10:00.016Z,11.61
2023-04-18T02:13:02.621Z,11.61
2023-04-18T02:16:06.177Z,11.66
2023-04-18T02:19:09.197Z,11.63
2023-04-18T02:22:11.755Z,11.67
2023-04-18T02:25:14.249Z,11.69
2023-04-18T02:28:16.747Z,11.70
2023-04-18T02:31:19.367Z,11.72
2023-04-18T02:34:21.912Z,11.73
2023-04-18T02:37:24.335Z,11.74
2023-04-18T02:40:26.916Z,11.77
2023-04-18T02:43:29.557Z,11.76
2023-04-18T02:46:32.736Z,11.76
2023-04-18T02:49:36.018Z,11.75
2023-04-18T02:52:38.551Z,11.70
2023-04-18T02:55:43.105Z,11.72
2023-04-18T02:58:45.762Z,11.73
2023-04-18T03:02:14.885Z,11.68
2023-04-18T03:05:24.778Z,11.68
2023-04-18T03:08:30.775Z,11.65
2023-04-18T03:11:33.654Z,11.65
2023-04-18T03:14:36.325Z,11.66
2023-04-18T03:17:39.465Z,11.64
2023-04-18T03:20:42.345Z,11.64
2023-04-18T03:23:45.005Z,11.64
2023-04-18T03:26:47.709Z,11.64
2023-04-18T03:29:51.966Z,11.67
2023-04-18T03:32:56.209Z,11.67
2023-04-18T03:35:59.401Z,11.66
2023-04-18T03:39:02.588Z,11.67
2023-04-18T03:42:05.824Z,11.63
2023-04-18T03:45:09.973Z,11.63
2023-04-18T03:48:13.087Z,11.63
2023-04-18T03:51:18.980Z,11.63
2023-04-18T03:54:22.682Z,11.66
2023-04-18T03:57:25.325Z,11.67
2023-04-18T04:00:28.020Z,11.67
2023-04-18T04:03:37.156Z,11.68
2023-04-18T04:06:40.622Z,11.69
2023-04-18T04:09:43.239Z,11.69
2023-04-18T04:12:46.731Z,11.70
2023-04-18T04:15:49.730Z,11.72
2023-04-18T04:18:52.382Z,11.69
2023-04-18T04:21:58.952Z,11.69
2023-04-18T04:25:02.776Z,11.70
2023-04-18T04:28:11.695Z,11.71
2023-04-18T04:31:24.265Z,11.75
2023-04-18T04:34:26.947Z,11.75
2023-04-18T04:37:29.887Z,11.77
2023-04-18T04:40:47.849Z,11.78
2023-04-18T04:43:51.327Z,11.76
2023-04-18T04:46:58.024Z,11.83
2023-04-18T04:50:07.813Z,11.84
2023-04-18T04:53:11.803Z,11.85
2023-04-18T04:56:14.798Z,11.86
2023-04-18T04:59:18.081Z,11.90
2023-04-18T05:02:23.404Z,11.90
2023-04-18T05:05:26.105Z,11.94
2023-04-18T05:08:28.972Z,12.00
2023-04-18T05:11:31.493Z,12.01
2023-04-18T05:14:34.072Z,12.05
2023-04-18T05:17:36.650Z,12.05
2023-04-18T05:20:39.188Z,12.10
2023-04-18T05:23:41.727Z,12.18
2023-04-18T05:26:44.342Z,12.22
2023-04-18T05:29:47.964Z,12.27
2023-04-18T05:32:50.919Z,12.26
2023-04-18T05:35:53.852Z,12.36
2023-04-18T05:38:56.507Z,12.37
2023-04-18T05:41:59.402Z,12.42
2023-04-18T05:45:02.221Z,12.53
2023-04-18T05:48:05.615Z,12.65
2023-04-18T05:51:09.101Z,12.65
2023-04-18T05:54:13.393Z,12.65
2023-04-18T05:57:16.304Z,12.71
2023-04-18T06:00:20.183Z,12.75
2023-04-18T06:03:22.976Z,12.81
2023-04-18T06:06:26.202Z,12.86
2023-04-18T06:09:28.722Z,12.85
2023-04-18T06:12:31.270Z,12.91
2023-04-18T06:15:34.913Z,12.97
2023-04-18T06:18:37.564Z,13.04
2023-04-18T06:21:42.213Z,13.06
2023-04-18T06:24:44.961Z,13.15
2023-04-18T06:27:47.709Z,13.33
2023-04-18T06:30:50.729Z,13.54
2023-04-18T06:33:53.295Z,13.66
2023-04-18T06:36:56.114Z,13.77
2023-04-18T06:39:58.772Z,13.90
2023-04-18T06:43:01.455Z,14.05
2023-04-18T06:46:07.176Z,14.12
2023-04-18T06:49:10.051Z,14.16
2023-04-18T06:52:12.837Z,14.27
2023-04-18T06:55:15.775Z,14.29
2023-04-18T06:58:18.549Z,14.32
2023-04-18T07:01:21.180Z,14.27
2023-04-18T07:04:23.891Z,14.26
2023-04-18T07:07:26.665Z,14.38
2023-04-18T07:10:29.978Z,14.54
2023-04-18T07:13:32.977Z,14.65
2023-04-18T07:16:35.724Z,14.67
2023-04-18T07:19:41.859Z,14.72
2023-04-18T07:22:44.483Z,14.74
2023-04-18T07:25:47.389Z,14.70
2023-04-18T07:28:50.003Z,14.81
2023-04-18T07:31:52.570Z,14.92
2023-04-18T07:34:57.502Z,14.82
2023-04-18T07:38:00.036Z,14.92
2023-04-18T07:41:03.418Z,15.04
2023-04-18T07:44:05.970Z,15.08
2023-04-18T07:47:11.507Z,15.14
2023-04-18T07:50:14.067Z,15.15
2023-04-18T07:53:17.093Z,15.48
2023-04-18T07:56:19.728Z,15.56
2023-04-18T07:59:22.546Z,15.45
2023-04-18T08:02:25.702Z,15.78
2023-04-18T08:05:29.518Z,15.81
2023-04-18T08:08:32.082Z,15.44
2023-04-18T08:11:35.292Z,15.56
2023-04-18T08:14:38.146Z,15.87
2023-04-18T08:17:42.755Z,15.81
2023-04-18T08:20:45.795Z,15.83
2023-04-18T08:23:48.670Z,16.31
2023-04-18T08:26:51.111Z,16.44
2023-04-18T08:29:55.428Z,16.57
2023-04-18T08:32:59.080Z,16.71
2023-04-18T08:36:01.709Z,16.83
2023-04-18T08:39:04.632Z,16.78
2023-04-18T08:42:10.411Z,16.96
2023-04-18T08:45:16.542Z,17.19
2023-04-18T08:48:19.172Z,17.29
2023-04-18T08:51:21.790Z,17.43
2023-04-18T08:54:25.587Z,17.43
2023-04-18T08:57:31.082Z,17.63
2023-04-18T09:00:36.602Z,17.77
2023-04-18T09:03:40.615Z,18.01
2023-04-18T09:06:54.970Z,18.11
2023-04-18T09:09:57.767Z,18.19
2023-04-18T09:13:03.538Z,18.17
2023-04-18T09:16:07.260Z,18.24
2023-04-18T09:19:18.729Z,18.46
2023-04-18T09:22:21.986Z,18.48
2023-04-18T09:25:29.328Z,18.70
2023-04-18T09:28:33.711Z,18.97
2023-04-18T09:32:00.126Z,18.82
2023-04-18T09:35:05.563Z,19.04
2023-04-18T09:38:08.282Z,19.12
2023-04-18T09:41:13.211Z,19.11
2023-04-18T09:44:17.717Z,19.16
2023-04-18T09:47:20.611Z,19.19
2023-04-18T09:50:23.303Z,18.80
2023-04-18T09:53:26.855Z,18.93
2023-04-18T09:56:32.776Z,18.74
2023-04-18T09:59:52.051Z,18.75
2023-04-18T10:03:10.056Z,18.89
2023-04-18T10:06:16.475Z,18.63
2023-04-18T10:09:20.939Z,18.89
2023-04-18T10:12:24.363Z,18.88
2023-04-18T10:15:31.982Z,19.02
2023-04-18T10:18:36.746Z,19.12
2023-04-18T10:21:57.465Z,19.20
2023-04-18T10:25:00.277Z,19.30
2023-04-18T10:28:04.497Z,19.04
2023-04-18T10:31:07.907Z,18.93
2023-04-18T10:34:17.513Z,18.99
2023-04-18T10:37:20.358Z,19.03
2023-04-18T10:40:34.326Z,19.03
2023-04-18T10:44:15.800Z,19.28
2023-04-18T10:47:20.203Z,19.25
2023-04-18T10:50:24.395Z,19.44
2023-04-18T10:53:31.522Z,19.67
2023-04-18T10:56:34.256Z,19.53
2023-04-18T10:59:42.437Z,19.63
2023-04-18T11:02:50.269Z,19.42
2023-04-18T11:06:02.002Z,19.48
2023-04-18T11:09:14.616Z,19.17
2023-04-18T11:12:17.240Z,19.02
2023-04-18T11:15:21.658Z,19.13
2023-04-18T11:18:24.607Z,19.06
2023-04-18T11:21:31.708Z,18.24
2023-04-18T11:24:34.416Z,18.85
2023-04-18T11:27:37.094Z,18.81
2023-04-18T11:30:41.211Z,19.30
2023-04-18T11:33:47.344Z,19.10
2023-04-18T11:36:51.406Z,19.39
2023-04-18T11:39:54.163Z,19.84
2023-04-18T11:42:56.902Z,20.13
2023-04-18T11:46:00.455Z,20.57
2023-04-18T11:49:02.992Z,20.36
2023-04-18T11:52:13.174Z,20.49
2023-04-18T11:55:18.555Z,20.36
2023-04-18T11:58:30.687Z,20.79
2023-04-18T12:01:33.463Z,21.05
2023-04-18T12:04:53.345Z,20.63
2023-04-18T12:07:56.768Z,20.46
2023-04-18T12:10:59.344Z,20.36
2023-04-18T12:14:03.552Z,20.13
2023-04-18T12:17:06.934Z,20.01
2023-04-18T12:20:10.763Z,19.93
2023-04-18T12:23:34.451Z,20.22
2023-04-18T12:26:45.810Z,19.95
2023-04-18T12:29:48.690Z,19.53
2023-04-18T12:32:54.496Z,19.25
2023-04-18T12:35:57.488Z,19.76
2023-04-18T12:39:00.185Z,21.78
2023-04-18T12:42:02.756Z,22.78
2023-04-18T12:45:07.818Z,23.55
2023-04-18T12:48:10.648Z,23.85
2023-04-18T12:51:13.272Z,24.58
2023-04-18T12:54:16.091Z,25.36
2023-04-18T12:57:19.029Z,25.38
2023-04-18T13:00:26.837Z,26.02
2023-04-18T13:03:29.716Z,25.57
2023-04-18T13:06:32.333Z,24.75
2023-04-18T13:09:34.986Z,24.01
2023-04-18T13:12:38.401Z,25.38
2023-04-18T13:15:41.348Z,25.11
2023-04-18T13:18:44.310Z,24.61
2023-04-18T13:21:48.436Z,24.60
2023-04-18T13:24:53.151Z,24.65
2023-04-18T13:27:56.579Z,25.18
2023-04-18T13:30:59.781Z,25.53
2023-04-18T13:34:02.344Z,25.41
2023-04-18T13:37:04.994Z,25.68
2023-04-18T13:40:08.555Z,26.23
2023-04-18T13:43:13.065Z,25.56
2023-04-18T13:46:15.665Z,25.87
2023-04-18T13:49:18.747Z,26.32
2023-04-18T13:52:21.270Z,26.51
2023-04-18T13:55:25.218Z,26.62
2023-04-18T13:58:27.794Z,25.88
2023-04-18T14:01:30.496Z,23.85
2023-04-18T14:04:33.634Z,24.12
2023-04-18T14:07:37.325Z,22.88
2023-04-18T14:10:39.958Z,23.78
2023-04-18T14:13:42.578Z,23.68
2023-04-18T14:16:45.230Z,24.88
2023-04-18T14:19:48.914Z,25.27
2023-04-18T14:22:53.120Z,25.53
2023-04-18T14:25:56.010Z,25.73
2023-04-18T14:28:58.724Z,25.67
2023-04-18T14:32:01.488Z,25.85
2023-04-18T14:35:06.092Z,26.93
2023-04-18T14:38:08.604Z,27.04
2023-04-18T14:41:11.227Z,27.05
2023-04-18T14:44:13.901Z,27.25
2023-04-18T14:47:16.491Z,26.12
2023-04-18T14:50:19.190Z,25.64
2023-04-18T14:53:21.866Z,25.50
2023-04-18T14:56:24.367Z,26.23
2023-04-18T14:59:28.820Z,26.98
2023-04-18T15:02:31.680Z,27.09
2023-04-18T15:05:35.010Z,27.23
2023-04-18T15:08:40.523Z,26.30
2023-04-18T15:11:43.036Z,25.73
2023-04-18T15:14:45.557Z,24.46
2023-04-18T15:17:48.096Z,23.80
2023-04-18T15:20:51.785Z,23.50
2023-04-18T15:23:54.349Z,22.97
2023-04-18T15:26:58.760Z,22.07
2023-04-18T15:30:02.414Z,22.95
2023-04-18T15:33:06.319Z,23.39
2023-04-18T15:36:10.112Z,23.78
2023-04-18T15:39:13.294Z,24.47
2023-04-18T15:42:16.031Z,24.67
2023-04-18T15:45:18.595Z,25.68
2023-04-18T15:48:21.264Z,26.19
2023-04-18T15:51:28.375Z,25.24
2023-04-18T15:54:30.836Z,24.91
2023-04-18T15:57:33.362Z,24.37
2023-04-18T16:00:35.919Z,22.40
2023-04-18T16:03:39.872Z,22.22
2023-04-18T16:06:42.973Z,21.42
2023-04-18T16:09:45.545Z,21.69
2023-04-18T16:12:48.282Z,21.03
2023-04-18T16:15:50.879Z,21.42
2023-04-18T16:18:53.410Z,21.60
2023-04-18T16:21:56.901Z,21.13
2023-04-18T16:24:59.430Z,20.67
2023-04-18T16:28:02.004Z,20.06
2023-04-18T16:31:06.143Z,19.54
2023-04-18T16:34:09.981Z,19.13
2023-04-18T16:37:12.438Z,18.82
2023-04-18T16:40:15.316Z,18.52
2023-04-18T16:43:17.890Z,18.37
2023-04-18T16:46:20.432Z,18.44
2023-04-18T16:49:23.754Z,18.36
2023-04-18T16:52:26.296Z,18.12
2023-04-18T16:55:29.018Z,18.08
2023-04-18T16:58:31.553Z,17.81
2023-04-18T17:01:34.326Z,17.73
2023-04-18T17:04:37.091Z,17.54
2023-04-18T17:07:39.698Z,17.24
2023-04-18T17:10:42.596Z,16.94
2023-04-18T17:13:45.700Z,16.70
2023-04-18T17:16:49.563Z,16.57
2023-04-18T17:19:53.455Z,16.49
2023-04-18T17:22:57.317Z,16.46
2023-04-18T17:25:59.761Z,16.31
2023-04-18T17:29:04.249Z,16.16
2023-04-18T17:32:07.169Z,16.06
2023-04-18T17:35:10.442Z,15.99
2023-04-18T17:38:13.043Z,15.86
2023-04-18T17:41:17.840Z,15.74
2023-04-18T17:44:20.774Z,15.58
2023-04-18T17:47:25.189Z,15.48
2023-04-18T17:50:28.161Z,15.40
2023-04-18T17:53:32.168Z,15.22
2023-04-18T17:56:35.457Z,15.11
2023-04-18T17:59:38.827Z,15.07
2023-04-18T18:02:44.885Z,15.03
2023-04-18T18:05:49.652Z,14.98
2023-04-18T18:08:52.306Z,15.02
2023-04-18T18:11:56.017Z,15.04
2023-04-18T18:14:59.146Z,14.94
2023-04-18T18:18:02.200Z,14.85
2023-04-18T18:21:05.391Z,14.85
2023-04-18T18:24:08.938Z,14.80
2023-04-18T18:27:11.520Z,14.72
2023-04-18T18:30:14.857Z,14.60
2023-04-18T18:33:17.804Z,14.54
2023-04-18T18:36:20.519Z,14.50
2023-04-18T18:39:23.507Z,14.47
2023-04-18T18:42:27.024Z,14.46
2023-04-18T18:45:30.068Z,14.53
2023-04-18T18:48:37.041Z,14.60
2023-04-18T18:51:41.014Z,14.60
2023-04-18T18:54:45.501Z,14.51
2023-04-18T18:57:48.455Z,14.49
2023-04-18T19:00:51.832Z,14.37
2023-04-18T19:03:54.970Z,14.29
2023-04-18T19:06:58.216Z,14.22
2023-04-18T19:10:01.790Z,14.25
2023-04-18T19:13:04.660Z,14.30
2023-04-18T19:16:07.738Z,14.32
2023-04-18T19:19:10.960Z,14.35
2023-04-18T19:22:13.828Z,14.35
2023-04-18T19:25:17.771Z,14.31
2023-04-18T19:28:22.664Z,14.29
2023-04-18T19:31:26.202Z,14.27
2023-04-18T19:34:29.270Z,14.33
2023-04-18T19:37:32.435Z,14.41
2023-04-18T19:40:35.380Z,14.37
2023-04-18T19:43:39.036Z,14.30
2023-04-18T19:46:41.824Z,14.28
2023-04-18T19:49:44.757Z,14.30
2023-04-18T19:52:48.183Z,14.36
2023-04-18T19:55:51.018Z,14.27
2023-04-18T19:58:54.065Z,14.19
2023-04-18T20:01:59.499Z,14.22
2023-04-18T20:05:06.431Z,14.22
2023-04-18T20:08:10.054Z,14.22
2023-04-18T20:11:14.335Z,14.23
2023-04-18T20:14:18.026Z,14.16
2023-04-18T20:17:21.168Z,14.21
2023-04-18T20:20:23.989Z,14.24
2023-04-18T20:23:26.934Z,14.16
2023-04-18T20:26:29.741Z,14.15
2023-04-18T20:29:32.631Z,14.21
2023-04-18T20:32:35.516Z,14.20
2023-04-18T20:35:38.373Z,14.21
2023-04-18T20:38:41.390Z,14.15
2023-04-18T20:41:46.733Z,14.03
2023-04-18T20:44:49.276Z,14.00
2023-04-18T20:47:52.693Z,13.99
2023-04-18T20:50:55.353Z,13.97
2023-04-18T20:53:57.904Z,13.96
2023-04-18T20:57:00.952Z,13.92
2023-04-18T21:00:06.429Z,13.86
2023-04-18T21:03:09.200Z,13.82
2023-04-18T21:06:12.192Z,13.70
2023-04-18T21:09:15.098Z,13.65
2023-04-18T21:12:17.977Z,13.59
2023-04-18T21:15:20.580Z,13.56
2023-04-18T21:18:23.604Z,13.53
2023-04-18T21:21:26.080Z,13.52
2023-04-18T21:24:28.642Z,13.52
2023-04-18T21:27:31.078Z,13.52
2023-04-18T21:30:34.740Z,13.50
2023-04-18T21:33:37.390Z,13.46
2023-04-18T21:36:40.184Z,13.41
2023-04-18T21:39:42.813Z,13.41
2023-04-18T21:42:46.006Z,13.45
2023-04-18T21:45:49.739Z,13.49
2023-04-18T21:48:52.575Z,13.49
2023-04-18T21:51:55.169Z,13.54
2023-04-18T21:54:59.281Z,13.54
2023-04-18T21:58:01.800Z,13.56
2023-04-18T22:01:04.639Z,13.55
2023-04-18T22:04:07.735Z,13.53
2023-04-18T22:07:11.585Z,13.58
2023-04-18T22:10:14.176Z,13.51
2023-04-18T22:13:19.061Z,13.53
2023-04-18T22:16:24.780Z,13.47
2023-04-18T22:19:29.568Z,13.49
2023-04-18T22:22:32.130Z,13.58
2023-04-18T22:25:34.913Z,13.62
2023-04-18T22:28:37.750Z,13.61
2023-04-18T22:31:40.363Z,13.63
2023-04-18T22:34:43.158Z,13.61
2023-04-18T22:37:45.973Z,13.60
2023-04-18T22:40:48.790Z,13.58
2023-04-18T22:43:51.406Z,13.53
2023-04-18T22:46:56.525Z,13.51
2023-04-18T22:49:58.978Z,13.55
2023-04-18T22:53:01.478Z,13.58
2023-04-18T22:56:04.136Z,13.58
2023-04-18T22:59:06.665Z,13.54
2023-04-18T23:02:10.585Z,13.53
2023-04-18T23:05:15.670Z,13.53
2023-04-18T23:08:20.686Z,13.51
2023-04-18T23:11:23.520Z,13.49
2023-04-18T23:14:26.001Z,13.42
2023-04-18T23:17:28.545Z,13.34
2023-04-18T23:20:31.083Z,13.30
2023-04-18T23:23:33.580Z,13.26
2023-04-18T23:26:36.070Z,13.24
2023-04-18T23:29:39.263Z,13.22
2023-04-18T23:32:42.056Z,13.17
2023-04-18T23:35:44.676Z,13.16
2023-04-18T23:38:47.325Z,13.12
2023-04-18T23:41:50.391Z,13.14
2023-04-18T23:44:52.928Z,13.13
2023-04-18T23:47:55.752Z,13.06
2023-04-18T23:50:58.724Z,13.06
2023-04-18T23:54:01.315Z,13.02
2023-04-18T23:57:03.926Z,12.96
